sensor_id;sensor_type;location;lat;lon;timestamp;temperature;humidity
6664;DHT22;58749;48.022;10.922;2022-07-29T00:02:06;21.40;98.60
6664;DHT22;58749;48.022;10.922;2022-07-29T00:04:34;21.40;98.40
6664;DHT22;58749;48.022;10.922;2022-07-29T00:07:04;21.40;98.30
6664;DHT22;58749;48.022;10.922;2022-07-29T00:09:32;21.30;98.40
6664;DHT22;58749;48.022;10.922;2022-07-29T00:12:18;21.40;98.60
6664;DHT22;58749;48.022;10.922;2022-07-29T00:14:53;21.40;98.80
6664;DHT22;58749;48.022;10.922;2022-07-29T00:17:22;21.50;98.70
6664;DHT22;58749;48.022;10.922;2022-07-29T00:19:50;21.60;98.60
6664;DHT22;58749;48.022;10.922;2022-07-29T00:22:20;21.50;98.50
6664;DHT22;58749;48.022;10.922;2022-07-29T00:24:48;21.60;98.10
6664;DHT22;58749;48.022;10.922;2022-07-29T00:27:17;21.60;97.90
6664;DHT22;58749;48.022;10.922;2022-07-29T00:29:45;21.50;97.80
6664;DHT22;58749;48.022;10.922;2022-07-29T00:32:13;21.50;97.80
6664;DHT22;58749;48.022;10.922;2022-07-29T00:34:42;21.50;97.80
6664;DHT22;58749;48.022;10.922;2022-07-29T00:37:28;21.50;97.80
6664;DHT22;58749;48.022;10.922;2022-07-29T00:39:57;21.20;97.80
6664;DHT22;58749;48.022;10.922;2022-07-29T00:42:25;21.10;98.50
6664;DHT22;58749;48.022;10.922;2022-07-29T00:44:53;20.90;98.50
6664;DHT22;58749;48.022;10.922;2022-07-29T00:47:21;20.90;98.70
6664;DHT22;58749;48.022;10.922;2022-07-29T00:49:49;20.90;99.10
6664;DHT22;58749;48.022;10.922;2022-07-29T00:52:17;21.00;98.60
6664;DHT22;58749;48.022;10.922;2022-07-29T00:54:47;21.10;98.50
6664;DHT22;58749;48.022;10.922;2022-07-29T00:57:15;21.20;98.30
6664;DHT22;58749;48.022;10.922;2022-07-29T00:59:44;21.30;98.10
6664;DHT22;58749;48.022;10.922;2022-07-29T01:02:12;21.30;97.90
6664;DHT22;58749;48.022;10.922;2022-07-29T01:04:41;21.30;97.90
6664;DHT22;58749;48.022;10.922;2022-07-29T01:07:09;21.40;97.80
6664;DHT22;58749;48.022;10.922;2022-07-29T01:09:38;21.40;97.50
6664;DHT22;58749;48.022;10.922;2022-07-29T01:12:16;21.30;97.30
6664;DHT22;58749;48.022;10.922;2022-07-29T01:14:46;21.20;97.30
6664;DHT22;58749;48.022;10.922;2022-07-29T01:17:23;21.20;97.40
6664;DHT22;58749;48.022;10.922;2022-07-29T01:19:58;21.20;97.50
6664;DHT22;58749;48.022;10.922;2022-07-29T01:22:37;20.90;97.50
6664;DHT22;58749;48.022;10.922;2022-07-29T01:25:31;20.60;98.00
6664;DHT22;58749;48.022;10.922;2022-07-29T01:28:12;20.50;98.40
6664;DHT22;58749;48.022;10.922;2022-07-29T01:30:51;20.60;98.20
6664;DHT22;58749;48.022;10.922;2022-07-29T01:33:21;20.70;98.10
6664;DHT22;58749;48.022;10.922;2022-07-29T01:36:13;20.80;97.90
6664;DHT22;58749;48.022;10.922;2022-07-29T01:38:44;20.80;97.60
6664;DHT22;58749;48.022;10.922;2022-07-29T01:41:16;20.80;97.40
6664;DHT22;58749;48.022;10.922;2022-07-29T01:43:53;20.80;97.30
6664;DHT22;58749;48.022;10.922;2022-07-29T01:46:30;20.70;97.40
6664;DHT22;58749;48.022;10.922;2022-07-29T01:49:23;20.70;97.50
6664;DHT22;58749;48.022;10.922;2022-07-29T01:52:20;20.70;97.50
6664;DHT22;58749;48.022;10.922;2022-07-29T01:54:53;20.70;97.30
6664;DHT22;58749;48.022;10.922;2022-07-29T01:57:26;20.70;97.10
6664;DHT22;58749;48.022;10.922;2022-07-29T01:59:57;20.70;97.10
6664;DHT22;58749;48.022;10.922;2022-07-29T02:02:28;20.70;97.10
6664;DHT22;58749;48.022;10.922;2022-07-29T02:04:59;20.70;97.10
6664;DHT22;58749;48.022;10.922;2022-07-29T02:07:49;20.70;97.00
6664;DHT22;58749;48.022;10.922;2022-07-29T02:10:39;20.60;97.00
6664;DHT22;58749;48.022;10.922;2022-07-29T02:13:29;20.60;97.00
6664;DHT22;58749;48.022;10.922;2022-07-29T02:15:58;20.50;97.00
6664;DHT22;58749;48.022;10.922;2022-07-29T02:18:30;20.50;96.90
6664;DHT22;58749;48.022;10.922;2022-07-29T02:20:59;20.50;96.90
6664;DHT22;58749;48.022;10.922;2022-07-29T02:23:31;20.40;96.90
6664;DHT22;58749;48.022;10.922;2022-07-29T02:26:17;20.40;97.10
6664;DHT22;58749;48.022;10.922;2022-07-29T02:28:46;20.50;97.20
6664;DHT22;58749;48.022;10.922;2022-07-29T02:31:16;20.50;97.10
6664;DHT22;58749;48.022;10.922;2022-07-29T02:33:47;20.50;97.10
6664;DHT22;58749;48.022;10.922;2022-07-29T02:36:16;20.50;97.00
6664;DHT22;58749;48.022;10.922;2022-07-29T02:38:45;20.60;97.00
6664;DHT22;58749;48.022;10.922;2022-07-29T02:41:23;20.60;96.80
6664;DHT22;58749;48.022;10.922;2022-07-29T02:43:55;20.50;96.60
6664;DHT22;58749;48.022;10.922;2022-07-29T02:46:29;20.50;96.80
6664;DHT22;58749;48.022;10.922;2022-07-29T02:49:04;20.30;96.80
6664;DHT22;58749;48.022;10.922;2022-07-29T02:51:40;20.10;97.20
6664;DHT22;58749;48.022;10.922;2022-07-29T02:54:18;19.90;97.60
6664;DHT22;58749;48.022;10.922;2022-07-29T02:56:48;19.90;97.70
6664;DHT22;58749;48.022;10.922;2022-07-29T02:59:23;19.70;97.80
6664;DHT22;58749;48.022;10.922;2022-07-29T03:01:55;19.70;98.00
6664;DHT22;58749;48.022;10.922;2022-07-29T03:04:26;19.70;98.20
6664;DHT22;58749;48.022;10.922;2022-07-29T03:06:56;19.70;98.30
6664;DHT22;58749;48.022;10.922;2022-07-29T03:09:26;19.80;98.30
6664;DHT22;58749;48.022;10.922;2022-07-29T03:11:56;19.70;98.20
6664;DHT22;58749;48.022;10.922;2022-07-29T03:14:24;19.60;98.30
6664;DHT22;58749;48.022;10.922;2022-07-29T03:16:53;19.50;98.50
6664;DHT22;58749;48.022;10.922;2022-07-29T03:19:21;19.30;98.90
6664;DHT22;58749;48.022;10.922;2022-07-29T03:21:51;19.20;99.40
6664;DHT22;58749;48.022;10.922;2022-07-29T03:24:27;19.20;99.70
6664;DHT22;58749;48.022;10.922;2022-07-29T03:26:55;19.30;99.80
6664;DHT22;58749;48.022;10.922;2022-07-29T03:29:25;19.40;99.80
6664;DHT22;58749;48.022;10.922;2022-07-29T03:32:01;19.50;99.70
6664;DHT22;58749;48.022;10.922;2022-07-29T03:34:33;19.60;99.50
6664;DHT22;58749;48.022;10.922;2022-07-29T03:37:02;19.80;99.30
6664;DHT22;58749;48.022;10.922;2022-07-29T03:39:35;19.90;99.00
6664;DHT22;58749;48.022;10.922;2022-07-29T03:42:05;19.90;98.70
6664;DHT22;58749;48.022;10.922;2022-07-29T03:44:34;20.00;98.60
6664;DHT22;58749;48.022;10.922;2022-07-29T03:47:04;20.00;98.50
6664;DHT22;58749;48.022;10.922;2022-07-29T03:49:36;20.10;98.40
6664;DHT22;58749;48.022;10.922;2022-07-29T03:52:06;20.00;98.30
6664;DHT22;58749;48.022;10.922;2022-07-29T03:54:53;20.10;98.30
6664;DHT22;58749;48.022;10.922;2022-07-29T03:57:30;20.00;98.20
6664;DHT22;58749;48.022;10.922;2022-07-29T04:00:00;20.00;98.20
6664;DHT22;58749;48.022;10.922;2022-07-29T04:02:29;20.00;98.30
6664;DHT22;58749;48.022;10.922;2022-07-29T04:04:57;20.00;98.30
6664;DHT22;58749;48.022;10.922;2022-07-29T04:07:26;19.90;98.30
6664;DHT22;58749;48.022;10.922;2022-07-29T04:09:55;20.00;98.30
6664;DHT22;58749;48.022;10.922;2022-07-29T04:12:25;20.00;98.30
6664;DHT22;58749;48.022;10.922;2022-07-29T04:14:52;19.90;98.20
6664;DHT22;58749;48.022;10.922;2022-07-29T04:17:20;20.00;98.30
6664;DHT22;58749;48.022;10.922;2022-07-29T04:19:48;19.90;98.30
6664;DHT22;58749;48.022;10.922;2022-07-29T04:22:16;20.00;98.40
6664;DHT22;58749;48.022;10.922;2022-07-29T04:24:46;20.00;98.40
6664;DHT22;58749;48.022;10.922;2022-07-29T04:27:14;20.00;98.40
6664;DHT22;58749;48.022;10.922;2022-07-29T04:29:42;20.00;98.30
6664;DHT22;58749;48.022;10.922;2022-07-29T04:32:23;20.10;98.10
6664;DHT22;58749;48.022;10.922;2022-07-29T04:34:52;20.20;98.00
6664;DHT22;58749;48.022;10.922;2022-07-29T04:37:20;20.20;97.70
6664;DHT22;58749;48.022;10.922;2022-07-29T04:39:49;20.30;98.00
6664;DHT22;58749;48.022;10.922;2022-07-29T04:42:17;20.30;97.60
6664;DHT22;58749;48.022;10.922;2022-07-29T04:44:53;20.30;97.50
6664;DHT22;58749;48.022;10.922;2022-07-29T04:47:21;20.20;97.50
6664;DHT22;58749;48.022;10.922;2022-07-29T04:49:49;20.10;97.70
6664;DHT22;58749;48.022;10.922;2022-07-29T04:52:18;20.00;97.90
6664;DHT22;58749;48.022;10.922;2022-07-29T04:54:45;20.00;98.20
6664;DHT22;58749;48.022;10.922;2022-07-29T04:57:15;20.00;98.40
6664;DHT22;58749;48.022;10.922;2022-07-29T04:59:43;19.90;97.90
6664;DHT22;58749;48.022;10.922;2022-07-29T05:02:11;19.80;97.90
6664;DHT22;58749;48.022;10.922;2022-07-29T05:04:39;19.60;98.80
6664;DHT22;58749;48.022;10.922;2022-07-29T05:07:07;19.40;99.60
6664;DHT22;58749;48.022;10.922;2022-07-29T05:09:35;19.30;99.90
6664;DHT22;58749;48.022;10.922;2022-07-29T05:12:04;19.20;99.90
6664;DHT22;58749;48.022;10.922;2022-07-29T05:14:33;19.10;99.90
6664;DHT22;58749;48.022;10.922;2022-07-29T05:17:01;19.00;99.90
6664;DHT22;58749;48.022;10.922;2022-07-29T05:19:29;19.00;99.90
6664;DHT22;58749;48.022;10.922;2022-07-29T05:21:58;19.00;99.90
6664;DHT22;58749;48.022;10.922;2022-07-29T05:24:26;18.90;99.90
6664;DHT22;58749;48.022;10.922;2022-07-29T05:26:54;18.80;99.90
6664;DHT22;58749;48.022;10.922;2022-07-29T05:29:22;18.90;99.90
6664;DHT22;58749;48.022;10.922;2022-07-29T05:32:15;18.80;99.90
6664;DHT22;58749;48.022;10.922;2022-07-29T05:34:51;18.80;99.90
6664;DHT22;58749;48.022;10.922;2022-07-29T05:37:19;18.70;99.90
6664;DHT22;58749;48.022;10.922;2022-07-29T05:39:47;18.80;99.90
6664;DHT22;58749;48.022;10.922;2022-07-29T05:42:23;18.80;99.90
6664;DHT22;58749;48.022;10.922;2022-07-29T05:44:51;18.90;99.90
6664;DHT22;58749;48.022;10.922;2022-07-29T05:47:25;18.90;99.90
6664;DHT22;58749;48.022;10.922;2022-07-29T05:50:12;19.00;99.90
6664;DHT22;58749;48.022;10.922;2022-07-29T05:53:04;19.00;99.90
6664;DHT22;58749;48.022;10.922;2022-07-29T05:55:46;19.00;99.90
6664;DHT22;58749;48.022;10.922;2022-07-29T05:58:14;19.10;99.90
6664;DHT22;58749;48.022;10.922;2022-07-29T06:00:45;19.10;99.90
6664;DHT22;58749;48.022;10.922;2022-07-29T06:03:14;19.10;99.90
6664;DHT22;58749;48.022;10.922;2022-07-29T06:05:42;19.30;99.90
6664;DHT22;58749;48.022;10.922;2022-07-29T06:08:11;19.40;99.90
6664;DHT22;58749;48.022;10.922;2022-07-29T06:10:39;19.50;99.90
6664;DHT22;58749;48.022;10.922;2022-07-29T06:13:07;19.50;99.90
6664;DHT22;58749;48.022;10.922;2022-07-29T06:15:35;19.50;99.90
6664;DHT22;58749;48.022;10.922;2022-07-29T06:18:03;19.60;99.90
6664;DHT22;58749;48.022;10.922;2022-07-29T06:20:35;19.70;99.90
6664;DHT22;58749;48.022;10.922;2022-07-29T06:23:04;19.80;99.90
6664;DHT22;58749;48.022;10.922;2022-07-29T06:25:32;20.00;99.90
6664;DHT22;58749;48.022;10.922;2022-07-29T06:28:02;20.20;99.90
6664;DHT22;58749;48.022;10.922;2022-07-29T06:30:30;20.30;99.90
6664;DHT22;58749;48.022;10.922;2022-07-29T06:32:58;20.40;99.90
6664;DHT22;58749;48.022;10.922;2022-07-29T06:35:27;20.50;99.90
6664;DHT22;58749;48.022;10.922;2022-07-29T06:38:09;20.50;99.90
6664;DHT22;58749;48.022;10.922;2022-07-29T06:40:58;20.60;99.90
6664;DHT22;58749;48.022;10.922;2022-07-29T06:43:31;20.70;99.90
6664;DHT22;58749;48.022;10.922;2022-07-29T06:46:01;20.60;99.90
6664;DHT22;58749;48.022;10.922;2022-07-29T06:48:39;20.60;99.90
6664;DHT22;58749;48.022;10.922;2022-07-29T06:51:09;20.60;99.00
6664;DHT22;58749;48.022;10.922;2022-07-29T06:53:39;20.70;98.70
6664;DHT22;58749;48.022;10.922;2022-07-29T06:56:27;20.80;98.70
6664;DHT22;58749;48.022;10.922;2022-07-29T06:58:55;20.90;98.30
6664;DHT22;58749;48.022;10.922;2022-07-29T07:01:24;21.00;98.40
6664;DHT22;58749;48.022;10.922;2022-07-29T07:03:52;21.00;98.90
6664;DHT22;58749;48.022;10.922;2022-07-29T07:06:20;21.20;98.30
6664;DHT22;58749;48.022;10.922;2022-07-29T07:08:50;21.20;96.20
6664;DHT22;58749;48.022;10.922;2022-07-29T07:11:18;21.20;95.20
6664;DHT22;58749;48.022;10.922;2022-07-29T07:13:46;21.20;95.60
6664;DHT22;58749;48.022;10.922;2022-07-29T07:16:14;21.20;97.90
6664;DHT22;58749;48.022;10.922;2022-07-29T07:18:43;21.30;97.00
6664;DHT22;58749;48.022;10.922;2022-07-29T07:21:12;21.50;96.20
6664;DHT22;58749;48.022;10.922;2022-07-29T07:23:45;21.60;95.60
6664;DHT22;58749;48.022;10.922;2022-07-29T07:26:15;21.70;96.00
6664;DHT22;58749;48.022;10.922;2022-07-29T07:28:46;21.90;96.40
6664;DHT22;58749;48.022;10.922;2022-07-29T07:31:14;22.10;96.00
6664;DHT22;58749;48.022;10.922;2022-07-29T07:33:42;22.40;96.00
6664;DHT22;58749;48.022;10.922;2022-07-29T07:36:18;22.60;95.00
6664;DHT22;58749;48.022;10.922;2022-07-29T07:38:47;22.70;94.50
6664;DHT22;58749;48.022;10.922;2022-07-29T07:41:36;22.90;94.50
6664;DHT22;58749;48.022;10.922;2022-07-29T07:44:24;23.00;95.60
6664;DHT22;58749;48.022;10.922;2022-07-29T07:47:14;22.90;95.00
6664;DHT22;58749;48.022;10.922;2022-07-29T07:49:48;22.90;95.00
6664;DHT22;58749;48.022;10.922;2022-07-29T07:52:17;22.80;94.70
6664;DHT22;58749;48.022;10.922;2022-07-29T07:54:46;22.80;94.70
6664;DHT22;58749;48.022;10.922;2022-07-29T07:57:17;22.80;95.50
6664;DHT22;58749;48.022;10.922;2022-07-29T07:59:50;22.90;94.70
6664;DHT22;58749;48.022;10.922;2022-07-29T08:02:18;23.00;94.40
6664;DHT22;58749;48.022;10.922;2022-07-29T08:04:47;23.10;94.90
6664;DHT22;58749;48.022;10.922;2022-07-29T08:07:21;23.20;94.60
6664;DHT22;58749;48.022;10.922;2022-07-29T08:09:49;23.30;94.90
6664;DHT22;58749;48.022;10.922;2022-07-29T08:12:20;23.40;94.50
6664;DHT22;58749;48.022;10.922;2022-07-29T08:14:48;23.40;94.50
6664;DHT22;58749;48.022;10.922;2022-07-29T08:17:17;23.40;94.60
6664;DHT22;58749;48.022;10.922;2022-07-29T08:19:52;23.40;93.70
6664;DHT22;58749;48.022;10.922;2022-07-29T08:22:22;23.30;93.90
6664;DHT22;58749;48.022;10.922;2022-07-29T08:24:52;23.30;94.10
6664;DHT22;58749;48.022;10.922;2022-07-29T08:27:26;23.20;93.90
6664;DHT22;58749;48.022;10.922;2022-07-29T08:30:11;23.10;94.00
6664;DHT22;58749;48.022;10.922;2022-07-29T08:32:40;23.00;95.00
6664;DHT22;58749;48.022;10.922;2022-07-29T08:35:23;23.00;95.00
6664;DHT22;58749;48.022;10.922;2022-07-29T08:38:03;23.00;95.00
6664;DHT22;58749;48.022;10.922;2022-07-29T08:40:34;23.00;94.60
6664;DHT22;58749;48.022;10.922;2022-07-29T08:43:10;23.10;94.60
6664;DHT22;58749;48.022;10.922;2022-07-29T08:45:53;23.10;95.00
6664;DHT22;58749;48.022;10.922;2022-07-29T08:48:26;23.10;95.00
6664;DHT22;58749;48.022;10.922;2022-07-29T08:51:02;23.10;95.00
6664;DHT22;58749;48.022;10.922;2022-07-29T08:53:32;23.20;94.60
6664;DHT22;58749;48.022;10.922;2022-07-29T08:56:01;23.30;94.40
6664;DHT22;58749;48.022;10.922;2022-07-29T08:58:33;23.40;94.70
6664;DHT22;58749;48.022;10.922;2022-07-29T09:01:04;23.50;93.50
6664;DHT22;58749;48.022;10.922;2022-07-29T09:03:40;23.50;94.00
6664;DHT22;58749;48.022;10.922;2022-07-29T09:06:15;23.50;94.30
6664;DHT22;58749;48.022;10.922;2022-07-29T09:08:48;23.70;94.20
6664;DHT22;58749;48.022;10.922;2022-07-29T09:11:19;23.70;93.50
6664;DHT22;58749;48.022;10.922;2022-07-29T09:13:49;23.70;93.90
6664;DHT22;58749;48.022;10.922;2022-07-29T09:16:18;23.80;94.20
6664;DHT22;58749;48.022;10.922;2022-07-29T09:19:20;23.80;93.60
6664;DHT22;58749;48.022;10.922;2022-07-29T09:21:53;23.80;93.50
6664;DHT22;58749;48.022;10.922;2022-07-29T09:24:53;23.90;94.10
6664;DHT22;58749;48.022;10.922;2022-07-29T09:27:24;23.80;92.40
6664;DHT22;58749;48.022;10.922;2022-07-29T09:29:59;23.90;92.70
6664;DHT22;58749;48.022;10.922;2022-07-29T09:32:28;24.10;92.70
6664;DHT22;58749;48.022;10.922;2022-07-29T09:35:17;24.10;92.30
6664;DHT22;58749;48.022;10.922;2022-07-29T09:37:46;24.10;92.60
6664;DHT22;58749;48.022;10.922;2022-07-29T09:40:20;24.00;93.00
6664;DHT22;58749;48.022;10.922;2022-07-29T09:43:09;24.10;92.40
6664;DHT22;58749;48.022;10.922;2022-07-29T09:45:39;24.20;92.90
6664;DHT22;58749;48.022;10.922;2022-07-29T09:48:21;24.40;93.00
6664;DHT22;58749;48.022;10.922;2022-07-29T09:50:51;24.50;91.90
6664;DHT22;58749;48.022;10.922;2022-07-29T09:53:31;24.50;92.80
6664;DHT22;58749;48.022;10.922;2022-07-29T09:56:00;24.50;92.30
6664;DHT22;58749;48.022;10.922;2022-07-29T09:58:28;24.60;91.80
6664;DHT22;58749;48.022;10.922;2022-07-29T10:00:58;24.70;91.70
6664;DHT22;58749;48.022;10.922;2022-07-29T10:03:26;24.70;92.60
6664;DHT22;58749;48.022;10.922;2022-07-29T10:06:06;24.80;91.30
6664;DHT22;58749;48.022;10.922;2022-07-29T10:08:35;24.90;92.90
6664;DHT22;58749;48.022;10.922;2022-07-29T10:11:11;25.00;92.10
6664;DHT22;58749;48.022;10.922;2022-07-29T10:13:46;24.90;90.60
6664;DHT22;58749;48.022;10.922;2022-07-29T10:16:17;24.70;89.40
6664;DHT22;58749;48.022;10.922;2022-07-29T10:18:46;24.60;90.70
6664;DHT22;58749;48.022;10.922;2022-07-29T10:21:15;24.60;90.90
6664;DHT22;58749;48.022;10.922;2022-07-29T10:24:02;24.60;90.10
6664;DHT22;58749;48.022;10.922;2022-07-29T10:26:32;24.60;89.70
6664;DHT22;58749;48.022;10.922;2022-07-29T10:29:02;24.50;90.10
6664;DHT22;58749;48.022;10.922;2022-07-29T10:31:43;24.60;90.50
6664;DHT22;58749;48.022;10.922;2022-07-29T10:34:17;24.80;90.40
6664;DHT22;58749;48.022;10.922;2022-07-29T10:36:54;24.90;90.10
6664;DHT22;58749;48.022;10.922;2022-07-29T10:39:34;25.00;90.40
6664;DHT22;58749;48.022;10.922;2022-07-29T10:42:17;25.20;89.60
6664;DHT22;58749;48.022;10.922;2022-07-29T10:44:59;25.30;90.60
6664;DHT22;58749;48.022;10.922;2022-07-29T10:47:29;25.60;88.90
6664;DHT22;58749;48.022;10.922;2022-07-29T10:50:02;25.70;88.50
6664;DHT22;58749;48.022;10.922;2022-07-29T10:52:51;25.80;84.50
6664;DHT22;58749;48.022;10.922;2022-07-29T10:55:34;25.80;84.10
6664;DHT22;58749;48.022;10.922;2022-07-29T10:58:14;25.60;84.20
6664;DHT22;58749;48.022;10.922;2022-07-29T11:00:44;25.60;83.10
6664;DHT22;58749;48.022;10.922;2022-07-29T11:03:45;25.50;84.70
6664;DHT22;58749;48.022;10.922;2022-07-29T11:07:06;25.40;84.90
6664;DHT22;58749;48.022;10.922;2022-07-29T11:09:35;25.50;86.80
6664;DHT22;58749;48.022;10.922;2022-07-29T11:15:11;25.70;86.50
6664;DHT22;58749;48.022;10.922;2022-07-29T11:18:03;25.80;86.60
6664;DHT22;58749;48.022;10.922;2022-07-29T11:20:38;26.00;87.30
6664;DHT22;58749;48.022;10.922;2022-07-29T11:23:25;26.10;84.50
6664;DHT22;58749;48.022;10.922;2022-07-29T11:26:18;26.10;82.70
6664;DHT22;58749;48.022;10.922;2022-07-29T11:28:59;26.20;82.90
6664;DHT22;58749;48.022;10.922;2022-07-29T11:31:34;26.10;81.80
6664;DHT22;58749;48.022;10.922;2022-07-29T11:34:19;26.10;80.70
6664;DHT22;58749;48.022;10.922;2022-07-29T11:37:21;26.10;79.40
6664;DHT22;58749;48.022;10.922;2022-07-29T11:40:14;26.00;76.40
6664;DHT22;58749;48.022;10.922;2022-07-29T11:42:48;26.00;77.70
6664;DHT22;58749;48.022;10.922;2022-07-29T11:45:23;26.00;74.70
6664;DHT22;58749;48.022;10.922;2022-07-29T11:48:16;25.90;74.80
6664;DHT22;58749;48.022;10.922;2022-07-29T11:50:58;25.70;76.30
6664;DHT22;58749;48.022;10.922;2022-07-29T11:53:28;25.70;76.10
6664;DHT22;58749;48.022;10.922;2022-07-29T11:56:24;25.40;76.50
6664;DHT22;58749;48.022;10.922;2022-07-29T11:59:03;25.30;77.90
6664;DHT22;58749;48.022;10.922;2022-07-29T12:01:34;25.10;77.30
6664;DHT22;58749;48.022;10.922;2022-07-29T12:04:03;25.00;77.80
6664;DHT22;58749;48.022;10.922;2022-07-29T12:06:32;24.90;79.30
6664;DHT22;58749;48.022;10.922;2022-07-29T12:09:06;24.80;79.00
6664;DHT22;58749;48.022;10.922;2022-07-29T12:11:40;24.70;80.10
6664;DHT22;58749;48.022;10.922;2022-07-29T12:14:25;24.70;81.40
6664;DHT22;58749;48.022;10.922;2022-07-29T12:16:53;24.50;80.00
6664;DHT22;58749;48.022;10.922;2022-07-29T12:19:22;24.40;81.50
6664;DHT22;58749;48.022;10.922;2022-07-29T12:21:52;24.30;82.70
6664;DHT22;58749;48.022;10.922;2022-07-29T12:24:24;24.30;83.10
6664;DHT22;58749;48.022;10.922;2022-07-29T12:26:56;24.20;83.30
6664;DHT22;58749;48.022;10.922;2022-07-29T12:29:25;24.10;83.20
6664;DHT22;58749;48.022;10.922;2022-07-29T12:32:02;24.00;84.20
6664;DHT22;58749;48.022;10.922;2022-07-29T12:34:40;23.90;84.80
6664;DHT22;58749;48.022;10.922;2022-07-29T12:37:09;23.90;85.20
6664;DHT22;58749;48.022;10.922;2022-07-29T12:39:39;23.80;84.80
6664;DHT22;58749;48.022;10.922;2022-07-29T12:42:11;23.80;85.60
6664;DHT22;58749;48.022;10.922;2022-07-29T12:44:45;23.70;85.80
6664;DHT22;58749;48.022;10.922;2022-07-29T12:47:14;23.70;86.50
6664;DHT22;58749;48.022;10.922;2022-07-29T12:49:42;23.60;87.20
6664;DHT22;58749;48.022;10.922;2022-07-29T12:52:30;23.60;88.80
6664;DHT22;58749;48.022;10.922;2022-07-29T12:55:00;23.60;88.70
6664;DHT22;58749;48.022;10.922;2022-07-29T12:57:29;23.60;89.10
6664;DHT22;58749;48.022;10.922;2022-07-29T13:00:00;23.50;89.40
6664;DHT22;58749;48.022;10.922;2022-07-29T13:02:28;23.50;89.20
6664;DHT22;58749;48.022;10.922;2022-07-29T13:04:57;23.50;89.10
6664;DHT22;58749;48.022;10.922;2022-07-29T13:07:26;23.40;89.80
6664;DHT22;58749;48.022;10.922;2022-07-29T13:10:19;23.40;89.40
6664;DHT22;58749;48.022;10.922;2022-07-29T13:13:04;23.30;90.00
6664;DHT22;58749;48.022;10.922;2022-07-29T13:15:33;23.30;90.40
6664;DHT22;58749;48.022;10.922;2022-07-29T13:18:02;23.20;90.50
6664;DHT22;58749;48.022;10.922;2022-07-29T13:20:30;23.20;90.60
6664;DHT22;58749;48.022;10.922;2022-07-29T13:22:59;23.10;90.80
6664;DHT22;58749;48.022;10.922;2022-07-29T13:25:30;23.10;90.70
6664;DHT22;58749;48.022;10.922;2022-07-29T13:27:59;23.20;90.70
6664;DHT22;58749;48.022;10.922;2022-07-29T13:30:27;23.20;90.50
6664;DHT22;58749;48.022;10.922;2022-07-29T13:32:56;23.30;90.60
6664;DHT22;58749;48.022;10.922;2022-07-29T13:35:24;23.30;90.50
6664;DHT22;58749;48.022;10.922;2022-07-29T13:37:52;23.40;90.10
6664;DHT22;58749;48.022;10.922;2022-07-29T13:40:20;23.40;89.50
6664;DHT22;58749;48.022;10.922;2022-07-29T13:42:50;23.40;87.50
6664;DHT22;58749;48.022;10.922;2022-07-29T13:45:18;23.50;88.70
6664;DHT22;58749;48.022;10.922;2022-07-29T13:47:46;23.70;88.30
6664;DHT22;58749;48.022;10.922;2022-07-29T13:50:15;23.90;88.20
6664;DHT22;58749;48.022;10.922;2022-07-29T13:52:44;24.00;86.80
6664;DHT22;58749;48.022;10.922;2022-07-29T13:55:14;24.00;86.40
6664;DHT22;58749;48.022;10.922;2022-07-29T13:57:42;24.10;85.90
6664;DHT22;58749;48.022;10.922;2022-07-29T14:00:13;24.20;86.70
6664;DHT22;58749;48.022;10.922;2022-07-29T14:02:42;24.20;86.20
6664;DHT22;58749;48.022;10.922;2022-07-29T14:05:28;24.20;85.70
6664;DHT22;58749;48.022;10.922;2022-07-29T14:08:17;24.20;87.00
6664;DHT22;58749;48.022;10.922;2022-07-29T14:11:04;24.00;87.00
6664;DHT22;58749;48.022;10.922;2022-07-29T14:13:32;23.80;86.70
6664;DHT22;58749;48.022;10.922;2022-07-29T14:16:03;23.70;88.10
6664;DHT22;58749;48.022;10.922;2022-07-29T14:18:31;23.70;87.60
6664;DHT22;58749;48.022;10.922;2022-07-29T14:21:00;23.70;88.20
6664;DHT22;58749;48.022;10.922;2022-07-29T14:23:29;23.70;88.50
6664;DHT22;58749;48.022;10.922;2022-07-29T14:25:57;23.70;88.80
6664;DHT22;58749;48.022;10.922;2022-07-29T14:28:28;23.90;88.00
6664;DHT22;58749;48.022;10.922;2022-07-29T14:30:57;23.90;86.40
6664;DHT22;58749;48.022;10.922;2022-07-29T14:33:30;24.00;86.30
6664;DHT22;58749;48.022;10.922;2022-07-29T14:35:59;24.00;86.00
6664;DHT22;58749;48.022;10.922;2022-07-29T14:38:27;24.10;86.10
6664;DHT22;58749;48.022;10.922;2022-07-29T14:40:57;24.20;87.30
6664;DHT22;58749;48.022;10.922;2022-07-29T14:43:25;24.30;86.40
6664;DHT22;58749;48.022;10.922;2022-07-29T14:45:54;24.40;86.60
6664;DHT22;58749;48.022;10.922;2022-07-29T14:48:32;24.50;86.50
6664;DHT22;58749;48.022;10.922;2022-07-29T14:51:00;24.50;85.90
6664;DHT22;58749;48.022;10.922;2022-07-29T14:53:31;24.60;86.10
6664;DHT22;58749;48.022;10.922;2022-07-29T14:55:59;24.60;84.20
6664;DHT22;58749;48.022;10.922;2022-07-29T14:58:47;24.70;83.70
6664;DHT22;58749;48.022;10.922;2022-07-29T15:01:18;24.70;84.70
6664;DHT22;58749;48.022;10.922;2022-07-29T15:03:48;24.80;83.20
6664;DHT22;58749;48.022;10.922;2022-07-29T15:06:17;24.80;83.10
6664;DHT22;58749;48.022;10.922;2022-07-29T15:08:46;24.80;83.10
6664;DHT22;58749;48.022;10.922;2022-07-29T15:11:14;24.80;83.10
6664;DHT22;58749;48.022;10.922;2022-07-29T15:13:42;24.70;82.30
6664;DHT22;58749;48.022;10.922;2022-07-29T15:16:11;24.70;82.10
6664;DHT22;58749;48.022;10.922;2022-07-29T15:18:39;24.70;81.70
6664;DHT22;58749;48.022;10.922;2022-07-29T15:21:10;24.60;81.90
6664;DHT22;58749;48.022;10.922;2022-07-29T15:23:38;24.50;83.00
6664;DHT22;58749;48.022;10.922;2022-07-29T15:26:07;24.40;82.80
6664;DHT22;58749;48.022;10.922;2022-07-29T15:28:38;24.30;83.00
6664;DHT22;58749;48.022;10.922;2022-07-29T15:31:07;24.30;83.10
6664;DHT22;58749;48.022;10.922;2022-07-29T15:33:36;24.20;83.90
6664;DHT22;58749;48.022;10.922;2022-07-29T15:36:04;24.20;83.70
6664;DHT22;58749;48.022;10.922;2022-07-29T15:38:34;24.10;82.80
6664;DHT22;58749;48.022;10.922;2022-07-29T15:41:07;24.10;83.30
6664;DHT22;58749;48.022;10.922;2022-07-29T15:43:36;24.00;82.80
6664;DHT22;58749;48.022;10.922;2022-07-29T15:46:04;24.00;81.10
6664;DHT22;58749;48.022;10.922;2022-07-29T15:48:52;23.90;81.70
6664;DHT22;58749;48.022;10.922;2022-07-29T15:51:20;23.90;82.20
6664;DHT22;58749;48.022;10.922;2022-07-29T15:53:50;23.80;83.40
6664;DHT22;58749;48.022;10.922;2022-07-29T15:56:39;23.80;83.70
6664;DHT22;58749;48.022;10.922;2022-07-29T15:59:30;23.70;81.30
6664;DHT22;58749;48.022;10.922;2022-07-29T16:01:59;23.60;81.70
6664;DHT22;58749;48.022;10.922;2022-07-29T16:04:28;23.60;82.30
6664;DHT22;58749;48.022;10.922;2022-07-29T16:06:56;23.50;82.10
6664;DHT22;58749;48.022;10.922;2022-07-29T16:09:27;23.50;82.60
6664;DHT22;58749;48.022;10.922;2022-07-29T16:11:58;23.40;82.40